Tiempo atmosférico en la estación meteorológica de Camaleño, Fuente De, Cantabria (1090 m.)



Fecha
DESCASC
Temp. máxima en grados centígrados (hora)
DESCASC
Temp. mínima en grados centígrados (hora)
DESCASC
Temp. media en grados centígrados
DESCASC
Racha de viento máxima en m/sg (hora)
DESCASC
Velocidad máxima media en intervalos de 10 minutos(hora)
DESCASC
Precipitaciones diarias en mm
DESCASC
Precipitaciones de 00:00 a 06:00 en mm
DESCASC
Precipitaciones de 06:00 a 12:00 en mm
DESCASC
Precipitaciones de 12:00 a 18:00 en mm
DESCASC
Precipitaciones de 18:00 a 24:00 en mm
DESCASC
13-02-2020 15.4 (14:20) 7.1 (23:50) 11.2 8.61 (12:20) 3.61 (12:30) 0 0 0 0 0
12-02-2020 11.7 (15:50) 2.9 (08:50) 7.3 6.94 (21:30) 2.78 (21:30) -- 0 0 -- 0
11-02-2020 12.8 (05:20) 5.9 (23:40) 9.4 8.06 (11:30) 3.06 (11:50) 2 0 1 0 1
10-02-2020 20.3 (14:50) 6.3 (00:00) 13.3 10.56 (00:30) 4.17 (00:30) 0 0 0 0 0
09-02-2020 12.8 (15:20) 5.1 (00:00) 9 12.78 (20:30) 5 (20:30) 0 0 0 0 0
08-02-2020 10.6 (13:20) 3.7 (00:00) 7.2 7.22 (00:20) 2.5 (00:40) 4 0 4 0 0
07-02-2020 15.7 (15:20) 3.8 (00:00) 9.7 8.06 (22:30) 3.61 (20:00) 0 0 0 0 0
06-02-2020 16.6 (14:40) 2.4 (00:00) 9.5 3.89 (14:10) 1.39 (14:10) 0 0 0 0 0
05-02-2020 12.2 (15:50) -1.1 (-00:0) 5.5 3.06 (14:20) 1.39 (11:40) 0 0 0 0 0
04-02-2020 9.7 (13:00) 3.9 (00:00) 6.8 3.06 (14:40) 1.39 (13:20) 0 0 0 0 0
03-02-2020 19.2 (14:30) 7.7 (06:50) 13.5 8.61 (12:20) 3.06 (00:40) 0 0 0 0 0
02-02-2020 15.2 (12:30) 11.1 (00:00) 13.2 10 (16:00) 4.17 (13:40) 0 0 0 0 0
01-02-2020 17.1 (15:00) 7.4 (00:00) 12.3 11.11 (01:30) 3.33 (01:00) 2.2 2.2 0 0 0
31-01-2020 14.5 (12:40) 4.6 (00:00) 9.5 10.56 (17:20) 4.44 (13:10) 0.4 0 0 0 0.4
30-01-2020 10 (12:30) 6.9 (00:00) 8.5 9.44 (13:10) 4.44 (13:10) 4.4 2.8 1.2 0.2 0.2
29-01-2020 9 (20:10) 4.3 (00:00) 6.7 10.56 (13:50) 2.5 (19:40) 31.8 4 1.8 13.8 12.2
28-01-2020 12.6 (15:00) 2 (00:00) 7.3 11.94 (00:20) 2.78 (00:50) 2.2 1.2 0 0 1
27-01-2020 8.2 (15:20) 3.6 (00:00) 5.9 12.5 (12:50) 3.61 (17:40) 4 2.6 0.8 0.4 0.2
26-01-2020 8.5 (14:40) -0.6 (-00:0) 3.9 11.11 (17:20) 4.17 (16:00) 0 0 0 0 0
25-01-2020 8.4 (13:10) 0.1 (00:00) 4.2 3.33 (13:20) 1.67 (12:50) 0 0 0 0 0
24-01-2020 9 (15:10) 1.4 (00:00) 5.2 7.78 (02:30) 2.78 (00:10) 0 0 0 0 0
23-01-2020 8.3 (15:20) -1.5 (-00:0) 3.4 7.22 (23:50) 3.33 (23:59) 5.4 0 0.2 5.2 0
22-01-2020 3.6 (15:50) -0.5 (-00:0) 1.5 9.72 (07:50) 3.06 (06:20) 19.6 2.4 10.4 5.4 1.4
21-01-2020 1.4 (13:10) -2.1 (-00:0) -0.3 7.5 (06:40) 2.22 (05:30) -- 0 -- -- 0
20-01-2020 -0.3 (13:10) -2.9 (-00:0) -1.6 12.5 (07:30) 4.72 (07:30) -- 0 0 -- 0
19-01-2020 1.9 (00:00) -1.1 (-00:0) 0.4 15.83 (20:00) 4.44 (20:00) 8.6 2 2 4.4 0.2
18-01-2020 7.8 (13:30) 1.9 (00:00) 4.9 12.5 (05:40) 5 (07:10) 9 0 0 6.8 2.2

Gráficas

Temp. máximas Temp. mínimas Temp. medias Precipitaciones Rachas de viento máximas Velocidades máximas media en intervalos de 10 minutos

Datos horarios

Fecha y hora oficial Temperatura (ºC) Velocidad del viento (km/h) Dirección del viento Racha (km/h) Dirección de racha Precipitación (mm) Presión (hPa) Tendencia (hPa) Humedad (%)
2020-02-16 23:00:00 11.8 9 Sudeste 30 Sur 0 -- -- 65
2020-02-16 22:00:00 11.4 10 Sur 36 Sudoeste 0 -- -- 68
2020-02-16 21:00:00 11.9 9 Sudeste 33 Sur 0 -- -- 64
2020-02-16 20:00:00 12 12 Sur 41 Sudoeste 0 -- -- 63
2020-02-16 19:00:00 12.2 10 Sur 43 Sudoeste 0 -- -- 60
2020-02-16 18:00:00 12.2 9 Este 40 Sudoeste 0 -- -- 61
2020-02-16 17:00:00 12.7 14 Sur 40 Sur 0 -- -- 57
2020-02-16 16:00:00 12.5 12 Sur 43 Sur 0 -- -- 52
2020-02-16 15:00:00 12.7 17 Sur 39 Sudoeste 0 -- -- 50
2020-02-16 14:00:00 10.9 13 Sur 45 Sur 0 -- -- 59
2020-02-16 13:00:00 11.4 15 Sudeste 48 Sur 0 -- -- 60
2020-02-16 12:00:00 11.1 15 Sudeste 43 Sur 0 -- -- 59
2020-02-16 11:00:00 9.7 15 Sur 40 Sur 0 -- -- 65
2020-02-16 10:00:00 9.6 12 Sudeste 39 Sur 0 -- -- 62
2020-02-16 09:00:00 8.4 9 Sur 31 Sur 0 -- -- 69
2020-02-16 08:00:00 8.4 7 Sur 33 Sur 0 -- -- 66
2020-02-16 07:00:00 8.2 5 Sudoeste 28 Sur 0 -- -- 65
2020-02-16 06:00:00 8.8 6 Sudoeste 31 Este 0 -- -- 62
2020-02-16 05:00:00 9.2 10 Sudeste 24 Sudeste 0 -- -- 66
2020-02-16 04:00:00 9.1 6 Sudeste 27 Sur 0 -- -- 62
2020-02-16 03:00:00 9.5 8 Sudeste 31 Sur 0 -- -- 65
2020-02-16 02:00:00 9.4 13 Sur 37 Sur 0 -- -- 65
2020-02-16 01:00:00 9.3 7 Sudeste 33 Sur 0 -- -- 63
2020-02-16 00:00:00 9.3 14 Sur 32 Sudoeste 0 -- -- 65
2020-02-15 23:00:00 10.1 13 Sur 41 Sur 0 -- -- 60
2020-02-15 22:00:00 9.6 13 Sur 36 Sur 0 -- -- 64
2020-02-15 21:00:00 9.3 13 Sur 37 Sudoeste 0 -- -- 63
2020-02-15 20:00:00 9.1 10 Sur 33 Sur 0 -- -- 62
2020-02-15 19:00:00 10.7 7 Sudoeste 30 Sur 0 -- -- 53
2020-02-15 18:00:00 11.7 6 Sur 31 Sur 0 -- -- 50
2020-02-15 17:00:00 12.8 9 Sur 29 Sur 0 -- -- 46
2020-02-15 16:00:00 12.9 5 Sudoeste 34 Sur 0 -- -- 44
2020-02-15 15:00:00 11.8 13 Sur 33 Sur 0 -- -- 47
2020-02-15 14:00:00 15.4 10 Norte 35 Oeste 0 -- -- 29
2020-02-15 13:00:00 12.5 6 Sudeste 24 Sudoeste 0 -- -- 45
2020-02-15 12:00:00 11.7 5 Sudoeste 25 Sur 0 -- -- 51
2020-02-15 11:00:00 9.8 4 Oeste 10 Noroeste 0 -- -- 54
2020-02-15 10:00:00 6.8 3 Noroeste 9 Noroeste 0 -- -- 64
2020-02-15 09:00:00 4.8 4 Noroeste 10 Noroeste 0 -- -- 68
2020-02-15 08:00:00 4.3 0 Calma 7 Oeste 0 -- -- 70
2020-02-15 07:00:00 4.7 2 Oeste 6 Sur 0 -- -- 71
2020-02-15 06:00:00 4.7 3 Noroeste 10 Noroeste 0 -- -- 71
2020-02-15 05:00:00 4.9 3 Oeste 9 Noroeste 0 -- -- 71
2020-02-15 04:00:00 5.1 2 Oeste 6 Oeste 0 -- -- 74
2020-02-15 03:00:00 5.4 0 Calma 5 Oeste -- -- -- 74
2020-02-15 02:00:00 5.1 2 Oeste 6 Sur 0 -- -- 79
2020-02-15 01:00:00 4.6 2 Noroeste 6 Oeste 0 -- -- 82
2020-02-15 00:00:00 4.2 0 Calma 5 Sudoeste 0 -- -- 90
2020-02-14 23:00:00 5.4 2 Sudoeste 5 Sur 0 -- -- 90
2020-02-14 22:00:00 6.7 0 Calma 3 Sudoeste 0 -- -- 92
2020-02-14 21:00:00 7.3 0 Calma 4 Sudoeste 0 -- -- 91
2020-02-14 20:00:00 6.8 3 Sudoeste 5 Sudoeste 0 -- -- 91
2020-02-14 19:00:00 7.7 3 Sur 8 Sudoeste 0 -- -- 82
2020-02-14 18:00:00 9.9 2 Sudoeste 10 Sudoeste 0 -- -- 74
2020-02-14 17:00:00 12.7 4 Sudoeste 9 Sudoeste 0 -- -- 64
2020-02-14 16:00:00 14.2 3 Sudeste 16 Sur 0 -- -- 59
2020-02-14 15:00:00 14.1 5 Sur 11 Sudoeste 0 -- -- 58
2020-02-14 14:00:00 14 4 Sur 11 Nordeste 0 -- -- 56
2020-02-14 13:00:00 13.2 4 Sudoeste 12 Este 0 -- -- 60
2020-02-14 12:00:00 10.9 5 Sur 10 Sur 0 -- -- 65
2020-02-14 11:00:00 7.1 5 Este 9 Este 0 -- -- 77
2020-02-14 10:00:00 3.8 0 Calma -- -- 0 -- -- 87
2020-02-14 09:00:00 2.9 0 Calma 5 Oeste 0 -- -- 84
2020-02-14 08:00:00 2.6 2 Oeste 5 Oeste 0 -- -- 86
2020-02-14 07:00:00 2.8 2 Sur 5 Oeste 0 -- -- 93
2020-02-14 06:00:00 3.5 0 Calma 4 Oeste 0 -- -- 96
2020-02-14 05:00:00 3.6 0 Calma 4 Oeste 0 -- -- 96
2020-02-14 04:00:00 4.4 2 Sudoeste 5 Sur 0 -- -- 93
2020-02-14 03:00:00 5.2 0 Calma 4 Noroeste 0 -- -- 96
2020-02-14 02:00:00 5.4 0 Calma 3 Sudoeste 0 -- -- 92
2020-02-14 01:00:00 6.9 0 Calma 3 Sudeste 0 -- -- 93
2020-02-14 00:00:00 7.1 0 Calma 4 Sur 0 -- -- 93
2020-02-13 23:00:00 7.6 0 Calma 5 Sur 0 -- -- 95
2020-02-13 22:00:00 7.7 0 Calma 4 Sudeste 0 -- -- 93
2020-02-13 21:00:00 7.6 0 Calma 2 Sur 0 -- -- 89
2020-02-13 20:00:00 7.6 0 Calma 6 Oeste 0 -- -- 86
2020-02-13 19:00:00 8.5 2 Sudoeste 5 Sudoeste 0 -- -- 78
2020-02-13 18:00:00 10.5 3 Oeste 12 Oeste 0 -- -- 72
2020-02-13 17:00:00 12 7 Sudoeste 17 Oeste 0 -- -- 64
2020-02-13 16:00:00 13.7 5 Sur 21 Sur 0 -- -- 46
2020-02-13 15:00:00 13.7 6 Sur 24 Norte 0 -- -- 49
2020-02-13 14:00:00 15.3 6 Noroeste 31 Sudoeste 0 -- -- 46
2020-02-13 13:00:00 13.9 10 Sudoeste 31 Sur 0 -- -- 49
2020-02-13 12:00:00 12.8 9 Sur 24 Sudoeste 0 -- -- 54
2020-02-13 11:00:00 10.3 10 Sudoeste 22 Sudoeste 0 -- -- 63
2020-02-13 10:00:00 9.5 8 Sur 23 Sudeste 0 -- -- 66
2020-02-13 09:00:00 9.2 7 Sur 25 Sur 0 -- -- 68
2020-02-13 08:00:00 9 9 Sur 30 Sur 0 -- -- 67
2020-02-13 07:00:00 9.3 9 Sur 21 Sudoeste 0 -- -- 68
2020-02-13 06:00:00 9.6 8 Sur 26 Sudoeste 0 -- -- 65
2020-02-13 05:00:00 10.2 6 Sudeste 22 Sur 0 -- -- 64
2020-02-13 04:00:00 10.5 7 Sur 25 Oeste 0 -- -- 66
2020-02-13 03:00:00 10.4 6 Sudeste 23 Noroeste 0 -- -- 67
2020-02-13 02:00:00 10.6 6 Sur 22 Este 0 -- -- 67
2020-02-13 01:00:00 10.4 4 Sudeste 23 Sur 0 -- -- 70
2020-02-13 00:00:00 10.2 5 Sudeste 21 Sur 0 -- -- 70
2020-02-12 23:00:00 9.6 8 Sur 23 Sur 0 -- -- 71
2020-02-12 22:00:00 9.8 9 Sur 25 Sudoeste 0 -- -- 70
2020-02-12 21:00:00 8.8 7 Sur 22 Sudeste 0 -- -- 73
2020-02-12 20:00:00 6.8 2 Sudoeste 6 Oeste 0 -- -- 82
2020-02-12 19:00:00 8.1 0 Calma 4 Sudoeste 0 -- -- 76
2020-02-12 18:00:00 9.6 0 Calma 6 Sudoeste 0 -- -- 71
2020-02-12 17:00:00 10.1 4 Sudoeste 12 Sur 0 -- -- 63
2020-02-12 16:00:00 11.6 6 Sur -- -- -- -- -- 62
2020-02-12 15:00:00 -- -- -- -- -- -- -- -- --
2020-02-12 14:00:00 9.9 3 Sur 11 Sur 0 -- -- 73
2020-02-12 13:00:00 9.1 6 Sur 14 Sur 0 -- -- 76
2020-02-12 12:00:00 8 4 Sudeste 10 Este 0 -- -- 81
2020-02-12 11:00:00 5.2 0 Calma 5 Este 0 -- -- 94
2020-02-12 10:00:00 3.5 0 Calma 3 Noroeste 0 -- -- 100
2020-02-12 09:00:00 2.9 0 Calma 6 Noroeste 0 -- -- 99
2020-02-12 08:00:00 3.3 0 Calma 4 Sur 0 -- -- 99
2020-02-12 07:00:00 4.1 0 Calma 5 Sur 0 -- -- 98
2020-02-12 06:00:00 4.6 0 Calma 6 Sur 0 -- -- 99
2020-02-12 05:00:00 4.8 0 Calma 5 Sudoeste 0 -- -- 99
2020-02-12 04:00:00 5.1 2 Sur 5 Sudoeste 0 -- -- 99
2020-02-12 03:00:00 5.4 0 Calma 4 Sudoeste 0 -- -- 99
2020-02-12 02:00:00 5.8 2 Sur 5 Sur 0 -- -- 99
2020-02-12 01:00:00 5.8 0 Calma 5 Sudoeste 0 -- -- 100
2020-02-12 00:00:00 5.9 2 Oeste 6 Oeste 0 -- -- 100
2020-02-11 23:00:00 6 0 Calma 6 Oeste 0.2 -- -- 99
2020-02-11 22:00:00 6.2 3 Sur 6 Sur 0 -- -- 99
2020-02-11 21:00:00 6.4 0 Calma 9 Sudoeste 0.8 -- -- 99
2020-02-11 20:00:00 6.7 4 Sudoeste 8 Sudoeste 0 -- -- 98
2020-02-11 19:00:00 7.4 3 Sudoeste 9 Sudoeste 0 -- -- 95
2020-02-11 18:00:00 8.4 4 Sudoeste 15 Sudoeste 0 -- -- 90
2020-02-11 17:00:00 10.2 7 Sur 15 Sur 0 -- -- 79
2020-02-11 16:00:00 11.6 4 Sur 20 Sur 0 -- -- 66
2020-02-11 15:00:00 11.6 4 Sudeste 18 Sudoeste 0 -- -- 60
2020-02-11 14:00:00 11.4 8 Sudoeste 26 Oeste 0 -- -- 62
2020-02-11 13:00:00 11.8 9 Oeste 28 Sudoeste 0 -- -- 62
2020-02-11 12:00:00 10.5 11 Sudoeste 29 Sur 0 -- -- 72
2020-02-11 11:00:00 9 8 Sudoeste 18 Oeste 0 -- -- 81
2020-02-11 10:00:00 7 0 Calma 5 Este 0.2 -- -- 98
2020-02-11 09:00:00 6.9 0 Calma 5 Sudoeste 0.4 -- -- 97
2020-02-11 08:00:00 7.4 0 Calma 14 Sudoeste 0.4 -- -- 94
2020-02-11 07:00:00 10.7 5 Sur 23 Sudeste 0 -- -- 79
2020-02-11 06:00:00 12.4 7 Sur 23 Sudoeste 0 -- -- 62
2020-02-11 05:00:00 12.6 9 Sudoeste 25 Sur 0 -- -- 61
2020-02-11 04:00:00 11.9 4 Sudoeste 18 Sur 0 -- -- 59
2020-02-11 03:00:00 12.4 9 Sur 24 Sur 0 -- -- 54
2020-02-11 02:00:00 12.2 9 Sur 28 Sur 0 -- -- 51
2020-02-11 01:00:00 8.4 4 Oeste 14 Sudoeste 0 -- -- 58
2020-02-11 00:00:00 7.5 2 Noroeste 8 Oeste 0 -- -- 67
2020-02-10 23:00:00 8 0 Calma 4 Sur 0 -- -- 72
2020-02-10 22:00:00 8.5 2 Sur 7 Oeste 0 -- -- 68
2020-02-10 21:00:00 9.5 0 Calma 7 Oeste 0 -- -- 73
2020-02-10 20:00:00 10.6 0 Calma 9 Oeste 0 -- -- 68
2020-02-10 19:00:00 12.8 6 Sur 23 Sudeste 0 -- -- 65
2020-02-10 18:00:00 14.3 4 Sudeste 17 Sur 0 -- -- 60
2020-02-10 17:00:00 15.7 6 Este 24 Sudoeste 0 -- -- 52
2020-02-10 16:00:00 18.6 8 Sur 24 Sudoeste 0 -- -- 39
2020-02-10 15:00:00 19.9 8 Sur 35 Sur 0 -- -- 22
2020-02-10 14:00:00 19.3 7 Sur 27 Sur 0 -- -- 26
2020-02-10 13:00:00 18.1 8 Sudeste 24 Sur 0 -- -- 35
2020-02-10 12:00:00 16.5 5 Sudeste 15 Este 0 -- -- 35
2020-02-10 11:00:00 11.5 4 Noroeste 11 Oeste 0 -- -- 54
2020-02-10 10:00:00 8 0 Calma 7 Oeste 0 -- -- 70
2020-02-10 09:00:00 6.7 0 Calma 6 Oeste 0 -- -- 72
2020-02-10 08:00:00 6.9 3 Sudoeste 9 Noroeste 0 -- -- 69
2020-02-10 07:00:00 6.5 0 Calma 8 Noroeste 0 -- -- 77
2020-02-10 06:00:00 6.8 4 Norte 17 Sur 0 -- -- 80
2020-02-10 05:00:00 8 3 Oeste 14 Noroeste 0 -- -- 78
2020-02-10 04:00:00 9.3 6 Noroeste 32 Sudoeste 0 -- -- 75
2020-02-10 03:00:00 10.2 10 Oeste 32 Sudoeste 0 -- -- 72
2020-02-10 02:00:00 10 13 Sudoeste 34 Sudoeste 0 -- -- 75
2020-02-10 01:00:00 10.1 14 Sur 38 Sur 0 -- -- 78
2020-02-10 00:00:00 10.8 14 Sudoeste 37 Sudoeste 0 -- -- 73
2020-02-09 23:00:00 10.7 16 Sudoeste 38 Sur 0 -- -- 72
2020-02-09 22:00:00 10.9 15 Sur 40 Sur 0 -- -- 71
2020-02-09 21:00:00 10.8 13 Sur 46 Sudoeste 0 -- -- 73
2020-02-09 20:00:00 10.3 11 Sur 33 Sudoeste 0 -- -- 75
2020-02-09 19:00:00 9.7 6 Sur 27 Sur 0 -- -- 78
2020-02-09 18:00:00 10.1 3 Sudoeste 27 Sur 0 -- -- 74
2020-02-09 17:00:00 10.4 8 Sudeste 28 Sur 0 -- -- 73
2020-02-09 16:00:00 11.2 9 Sudeste 26 Sur 0 -- -- 68
2020-02-09 15:00:00 12.4 8 Sudeste 25 Sudoeste 0 -- -- 63
2020-02-09 14:00:00 12.1 7 Sudeste 22 Sudoeste 0 -- -- 63
2020-02-09 13:00:00 11.5 6 Sudeste 18 Nordeste 0 -- -- 62
2020-02-09 12:00:00 9.4 4 Sudoeste 25 Oeste 0 -- -- 65
2020-02-09 11:00:00 8.4 9 Sudoeste 22 Sudoeste 0 -- -- 67
2020-02-09 10:00:00 7.7 9 Oeste 28 Sudoeste 0 -- -- 67
2020-02-09 09:00:00 6.5 6 Oeste 20 Sur 0 -- -- 72
2020-02-09 08:00:00 5.8 5 Oeste 22 Sur 0 -- -- 71
2020-02-09 07:00:00 7.3 12 Sur 46 Sur 0 -- -- 60
2020-02-09 06:00:00 7.8 15 Sudoeste 42 Sudoeste 0 -- -- 52
2020-02-09 05:00:00 7.7 13 Sudoeste 37 Sudoeste 0 -- -- 48
2020-02-09 04:00:00 5.1 4 Oeste 20 Sur 0 -- -- 67
2020-02-09 03:00:00 5.9 8 Sudoeste 19 Sudoeste 0 -- -- 67
2020-02-09 02:00:00 6.7 6 Sudoeste 31 Sudoeste 0 -- -- 63
2020-02-09 01:00:00 6.8 11 Sur 29 Sur 0 -- -- 63
2020-02-09 00:00:00 6.5 7 Sur 22 Sur 0 -- -- 67
2020-02-08 23:00:00 5.7 4 Sudeste 18 Sur 0 -- -- 77
2020-02-08 22:00:00 3.8 2 Sudeste 9 Sur 0 -- -- 93
2020-02-08 21:00:00 4 4 Oeste 8 Noroeste 0 -- -- 96
2020-02-08 20:00:00 5.2 3 Sur 7 Sur 0 -- -- 93
2020-02-08 19:00:00 6.1 3 Sur 7 Sur 0 -- -- 93
2020-02-08 18:00:00 6.9 2 Sur 8 Sur 0 -- -- 88
2020-02-08 17:00:00 7.6 3 Oeste 13 Sudoeste 0 -- -- 84
2020-02-08 16:00:00 9.2 4 Sur 11 Sur 0 -- -- 76
2020-02-08 15:00:00 9.1 3 Sudeste 10 Sur 0 -- -- 80
2020-02-08 14:00:00 9.7 4 Sudeste 12 Sudoeste 0 -- -- 73
2020-02-08 13:00:00 9.5 0 Calma 6 Este 0 -- -- 77
2020-02-08 12:00:00 5.5 0 Calma 3 Este 0.4 -- -- 95
2020-02-08 11:00:00 5.1 0 Calma 8 Sudoeste 1 -- -- 96
2020-02-08 10:00:00 5.4 0 Calma 4 Sudoeste 1.4 -- -- 98
2020-02-08 09:00:00 5.4 2 Oeste 8 Noroeste 0.8 -- -- 96
2020-02-08 08:00:00 5.5 0 Calma 6 Noroeste 0.2 -- -- 94
2020-02-08 07:00:00 5.9 2 Sudoeste 8 Este 0.2 -- -- 91
2020-02-08 06:00:00 6.7 3 Oeste 11 Noroeste 0 -- -- 84
2020-02-08 05:00:00 7.6 7 Oeste 16 Sudoeste 0 -- -- 73
2020-02-08 04:00:00 7.8 5 Sudeste 15 Sur 0 -- -- 71
2020-02-08 03:00:00 7.6 5 Sur 18 Sur 0 -- -- 65
2020-02-08 02:00:00 8 5 Sur 19 Sudoeste 0 -- -- 63
2020-02-08 01:00:00 8.5 8 Sur 26 Sudoeste 0 -- -- 64
2020-02-08 00:00:00 8.8 8 Oeste 22 Sudoeste 0 -- -- 64
2020-02-07 23:00:00 8.3 9 Noroeste 29 Sur 0 -- -- 66
2020-02-07 22:00:00 7.8 8 Sudoeste 25 Oeste 0 -- -- 68
2020-02-07 21:00:00 6.4 4 Noroeste 22 Sudoeste 0 -- -- 74
2020-02-07 20:00:00 8.2 13 Sudoeste 23 Sudoeste 0 -- -- 66
2020-02-07 19:00:00 8.7 0 Calma 19 Oeste 0 -- -- 67
2020-02-07 18:00:00 10.9 3 Sudoeste 12 Sudoeste 0 -- -- 57
2020-02-07 17:00:00 13.1 3 Sur 13 Sur 0 -- -- 47
2020-02-07 16:00:00 15.4 3 Sudeste 19 Sur 0 -- -- 40
2020-02-07 15:00:00 15.2 6 Sur 17 Oeste 0 -- -- 41
2020-02-07 14:00:00 14.7 4 Sur 15 Sudoeste 0 -- -- 41
2020-02-07 13:00:00 13.9 4 Sur 13 Oeste 0 -- -- 44
2020-02-07 12:00:00 11.7 4 Sur 12 Sur 0 -- -- 51
2020-02-07 11:00:00 8 3 Noroeste 9 Noroeste 0 -- -- 68
2020-02-07 10:00:00 4.8 0 Calma 5 Noroeste 0 -- -- 79
2020-02-07 09:00:00 3.8 0 Calma 4 Oeste 0 -- -- 79
2020-02-07 08:00:00 4.4 3 Oeste 12 Noroeste 0 -- -- 80
2020-02-07 07:00:00 5.1 0 Calma 5 Sur 0 -- -- 79
2020-02-07 06:00:00 6.5 5 Noroeste 23 Oeste 0 -- -- 73
2020-02-07 05:00:00 5.4 3 Oeste 13 Sudoeste 0 -- -- 78
2020-02-07 04:00:00 6 5 Oeste 18 Sur 0 -- -- 73
2020-02-07 03:00:00 5 2 Sudoeste 12 Sudoeste 0 -- -- 70
2020-02-07 02:00:00 4.8 0 Calma 5 Oeste 0 -- -- 67
2020-02-07 01:00:00 5.1 0 Calma -- -- 0 -- -- 65
2020-02-07 00:00:00 5.2 0 Calma -- -- 0 -- -- 63
2020-02-06 23:00:00 4.7 0 Calma 0 Calma 0 -- -- 66
2020-02-06 22:00:00 5 0 Calma -- -- 0 -- -- 64
2020-02-06 21:00:00 5.4 0 Calma 3 Oeste 0 -- -- 60
2020-02-06 20:00:00 6.3 0 Calma 4 Sudoeste 0 -- -- 56
2020-02-06 19:00:00 8.4 2 Sudoeste 7 Oeste 0 -- -- 48
2020-02-06 18:00:00 11.4 3 Sudoeste 8 Sudoeste 0 -- -- 36
2020-02-06 17:00:00 12.6 4 Sudoeste 10 Sur 0 -- -- 31
2020-02-06 16:00:00 14.3 5 Sudoeste 13 Sudoeste 0 -- -- 24
2020-02-06 15:00:00 16.5 5 Sudoeste 14 Sur 0 -- -- 22
2020-02-06 14:00:00 16.1 4 Sur 10 Este 0 -- -- 20
2020-02-06 13:00:00 15.6 3 Sur 12 Sudoeste 0 -- -- 20
2020-02-06 12:00:00 12.5 4 Sur 12 Sudoeste 0 -- -- 26
2020-02-06 11:00:00 7.4 0 Calma 0 Calma 0 -- -- 35
2020-02-06 10:00:00 5.1 0 Calma -- -- 0 -- -- 44
2020-02-06 09:00:00 5.2 0 Calma 6 Sudoeste 0 -- -- 43
2020-02-06 08:00:00 5.5 0 Calma 9 Sur 0 -- -- 34
2020-02-06 07:00:00 5.3 4 Oeste 9 Oeste 0 -- -- 36
2020-02-06 06:00:00 4.8 3 Oeste 6 Oeste 0 -- -- 37
2020-02-06 05:00:00 4.4 2 Sur 8 Nordeste 0 -- -- 37
2020-02-06 04:00:00 4.1 0 Calma 0 Calma 0 -- -- 38
2020-02-06 03:00:00 3.5 0 Calma 3 Sur 0 -- -- 37
2020-02-06 02:00:00 4 0 Calma 5 Oeste 0 -- -- 37
2020-02-06 01:00:00 3.7 0 Calma 8 Oeste 0 -- -- 39
2020-02-06 00:00:00 2.4 2 Noroeste 5 Oeste 0 -- -- 59
2020-02-05 23:00:00 2.1 0 Calma 4 Sudoeste 0 -- -- 62
2020-02-05 22:00:00 2.6 2 Oeste 6 Noroeste 0 -- -- 60
2020-02-05 21:00:00 3.6 0 Calma 4 Oeste 0 -- -- 55
2020-02-05 20:00:00 4.1 0 Calma 5 Oeste 0 -- -- 54
2020-02-05 19:00:00 4.5 0 Calma 3 Oeste 0 -- -- 56
2020-02-05 18:00:00 6.1 0 Calma 5 Sur 0 -- -- 61
2020-02-05 17:00:00 8.5 2 Sur 8 Sur 0 -- -- 58
2020-02-05 16:00:00 12.1 3 Sur 10 Sur 0 -- -- 50
2020-02-05 15:00:00 10.7 3 Sudeste 11 Sudoeste 0 -- -- 55
2020-02-05 14:00:00 9.7 3 Sudeste 9 Sudeste 0 -- -- 58
2020-02-05 13:00:00 7.3 3 Sudeste 9 Este 0 -- -- 70
2020-02-05 12:00:00 2.9 3 Este 8 Este 0 -- -- 86
2020-02-05 11:00:00 0.4 4 Este 7 Este 0 -- -- 98
2020-02-05 10:00:00 -0.6 0 Calma 5 Este 0 -- -- 100
2020-02-05 09:00:00 -1 2 Norte 5 Noroeste 0 -- -- 99
2020-02-05 08:00:00 -0.9 0 Calma 5 Oeste 0 -- -- 98
2020-02-05 07:00:00 -0.4 0 Calma 5 Noroeste 0 -- -- 97
2020-02-05 06:00:00 0.3 2 Oeste 4 Noroeste 0 -- -- 97
2020-02-05 05:00:00 0.3 2 Sur 6 Sudoeste 0 -- -- 94
2020-02-05 04:00:00 0.7 2 Sudoeste 5 Oeste 0 -- -- 86
2020-02-05 03:00:00 2.3 2 Oeste 4 Oeste 0 -- -- 96
2020-02-05 02:00:00 2.1 0 Calma 5 Noroeste 0 -- -- 96
2020-02-05 01:00:00 2.9 2 Sudoeste 4 Sudoeste 0 -- -- 91
2020-02-05 00:00:00 3.9 0 Calma 5 Sur 0 -- -- 96
2020-02-04 23:00:00 4.5 2 Sudeste 8 Sur 0 -- -- 96
2020-02-04 22:00:00 4.7 5 Sur 8 Sur 0 -- -- 97
2020-02-04 21:00:00 5.2 3 Sur 8 Sudoeste 0 -- -- 98
2020-02-04 20:00:00 5.8 3 Sur 8 Sur 0 -- -- 98
2020-02-04 19:00:00 5.8 0 Calma 4 Sudoeste 0 -- -- 95
2020-02-04 18:00:00 6.8 0 Calma 6 Sudeste 0 -- -- 96
2020-02-04 12:00:00 8.7 0 Calma 7 Este 0 -- -- 82
2020-02-04 11:00:00 6.8 0 Calma 6 Este 0 -- -- 90
2020-02-04 10:00:00 5.2 0 Calma 8 Sur 0 -- -- 93
2020-02-04 09:00:00 4.3 3 Sudoeste 7 Oeste 0 -- -- 94
2020-02-04 08:00:00 4.5 0 Calma 4 Oeste 0 -- -- 92
2020-02-04 07:00:00 4.8 0 Calma 3 Oeste 0 -- -- 89
2020-02-04 06:00:00 5.6 0 Calma 4 Sur 0 -- -- 85
2020-02-04 05:00:00 5.9 0 Calma 9 Sur 0 -- -- 81
2020-02-04 04:00:00 6.5 0 Calma 5 Noroeste 0 -- -- 76
2020-02-04 03:00:00 7.6 0 Calma 4 Sudoeste 0 -- -- 71
2020-02-04 02:00:00 8.3 0 Calma 4 Oeste 0 -- -- 65
2020-02-04 01:00:00 9.2 0 Calma 5 Sudoeste 0 -- -- 61
2020-02-04 00:00:00 9.6 2 Oeste 6 Noroeste 0 -- -- 57
2020-02-03 23:00:00 10.4 2 Sudoeste 6 Sudoeste 0 -- -- 54
2020-02-03 22:00:00 11.2 3 Noroeste 8 Sudoeste 0 -- -- 50
2020-02-03 21:00:00 12.5 4 Sur 19 Sur 0 -- -- 47
2020-02-03 20:00:00 11 2 Oeste 7 Noroeste 0 -- -- 56
2020-02-03 19:00:00 12.3 2 Sudoeste 22 Sudoeste 0 -- -- 49
2020-02-03 18:00:00 15.3 8 Sur 22 Sur 0 -- -- 40
2020-02-03 17:00:00 16.6 6 Oeste 18 Sudoeste 0 -- -- 34
2020-02-03 16:00:00 18.3 5 Oeste 24 Sur 0 -- -- 32
2020-02-03 15:00:00 19.1 9 Sudoeste 27 Sur 0 -- -- 28
2020-02-03 14:00:00 18.4 9 Sur 30 Sur 0 -- -- 28
2020-02-03 13:00:00 18.1 8 Este 31 Sudoeste 0 -- -- 29
2020-02-03 12:00:00 16.4 6 Este 19 Este 0 -- -- 31
2020-02-03 11:00:00 14 8 Sur 22 Sur 0 -- -- 40
2020-02-03 10:00:00 9.5 2 Oeste 8 Noroeste 0 -- -- 58
2020-02-03 09:00:00 7.8 3 Oeste 10 Noroeste 0 -- -- 65
2020-02-03 08:00:00 7.9 3 Oeste 8 Nordeste 0 -- -- 64
2020-02-03 07:00:00 7.8 2 Sudeste 9 Noroeste 0 -- -- 67
2020-02-03 06:00:00 8.1 0 Calma -- -- 0 -- -- 65
2020-02-03 05:00:00 8.1 0 Calma -- -- 0 -- -- 68
2020-02-03 04:00:00 8.1 0 Calma 0 Calma 0 -- -- 70
2020-02-03 03:00:00 8.5 0 Calma 9 Oeste 0 -- -- 73
2020-02-03 02:00:00 9.5 5 Noroeste 23 Sudoeste 0 -- -- 72
2020-02-03 01:00:00 11.5 5 Noroeste 27 Oeste 0 -- -- 64
2020-02-03 00:00:00 12.2 12 Noroeste 35 Oeste 0 -- -- 64
2020-02-02 23:00:00 12.1 9 Oeste 33 Oeste 0 -- -- 62
2020-02-02 22:00:00 12 10 Oeste 32 Oeste 0 -- -- 64
2020-02-02 21:00:00 12.1 10 Oeste 31 Oeste 0 -- -- 65
2020-02-02 20:00:00 12.1 6 Sudoeste 27 Sudoeste 0 -- -- 63
2020-02-02 19:00:00 11.8 6 Oeste 27 Sur 0 -- -- 65
2020-02-02 18:00:00 12.5 6 Sudoeste 25 Sur 0 -- -- 65
2020-02-02 17:00:00 12.9 10 Sur 33 Sur 0 -- -- 65
2020-02-02 16:00:00 14.1 14 Sur 36 Sur 0 -- -- 61
2020-02-02 15:00:00 14.7 14 Sur 31 Sur 0 -- -- 63
2020-02-02 14:00:00 13.9 14 Sur 35 Sudeste 0 -- -- 65
2020-02-02 13:00:00 15.1 14 Sur 35 Sur 0 -- -- 58
2020-02-02 12:00:00 13.6 11 Sur 33 Sudoeste 0 -- -- 63
2020-02-02 11:00:00 12.3 12 Sur 34 Sur 0 -- -- 67
2020-02-02 10:00:00 11.7 9 Sur 31 Oeste 0 -- -- 71
2020-02-02 09:00:00 11.3 8 Sudoeste 31 Sudoeste 0 -- -- 71
2020-02-02 08:00:00 11.1 8 Sudoeste 23 Sudoeste 0 -- -- 75
2020-02-02 07:00:00 11.3 8 Sur 25 Sudoeste 0 -- -- 74
2020-02-02 06:00:00 11.3 8 Sur 21 Sur 0 -- -- 73
2020-02-02 05:00:00 11.5 9 Sudeste 26 Sudoeste 0 -- -- 74
2020-02-02 04:00:00 11.5 9 Sudeste 26 Sur 0 -- -- 74
2020-02-02 03:00:00 11.3 9 Sur 23 Sudeste 0 -- -- 73
2020-02-02 02:00:00 11.7 4 Sudeste 26 Sur 0 -- -- 71
2020-02-02 01:00:00 12.1 11 Sur 26 Oeste 0 -- -- 70
2020-02-02 00:00:00 12.2 10 Sur 30 Sur 0 -- -- 69
2020-02-01 23:00:00 12.2 9 Sur 21 Sudoeste 0 -- -- 68
2020-02-01 22:00:00 11.7 5 Sur 22 Sudoeste 0 -- -- 69
2020-02-01 21:00:00 13.2 9 Sudoeste 24 Sudoeste 0 -- -- 66
2020-02-01 20:00:00 13.1 10 Sur 26 Sudoeste 0 -- -- 67
2020-02-01 19:00:00 13.1 8 Sur 26 Sur 0 -- -- 65
2020-02-01 18:00:00 13.3 8 Sudeste 22 Sudoeste 0 -- -- 64
2020-02-01 17:00:00 13.8 8 Sudeste 29 Sur 0 -- -- 64
2020-02-01 16:00:00 14.8 6 Sudeste 25 Sur 0 -- -- 62
2020-02-01 15:00:00 17.1 6 Sur 27 Sur 0 -- -- 51
2020-02-01 14:00:00 16.7 7 Noroeste 32 Sur 0 -- -- 52
2020-02-01 13:00:00 15.6 8 Sur 26 Sudoeste 0 -- -- 57
2020-02-01 12:00:00 12.8 8 Sur 21 Oeste 0 -- -- 63
2020-02-01 11:00:00 12.7 6 Sur 26 Sur 0 -- -- 66
2020-02-01 10:00:00 8.9 4 Norte 10 Noroeste 0 -- -- 85
2020-02-01 09:00:00 7.9 2 Noroeste 7 Noroeste 0 -- -- 89
2020-02-01 08:00:00 7.4 0 Calma 22 Sudoeste 0 -- -- 90
2020-02-01 07:00:00 7.5 4 Noroeste 8 Noroeste 0 -- -- 90
2020-02-01 06:00:00 9 3 Sudoeste 11 Sur 0 -- -- 85
2020-02-01 05:00:00 10.7 5 Sudoeste 27 Sur 0 -- -- 78
2020-02-01 04:00:00 11.7 9 Sur 28 Sudoeste 0 -- -- 75
2020-02-01 03:00:00 10.2 6 Este 27 Sur 0.2 -- -- 88
2020-02-01 02:00:00 11 9 Sudeste 40 Sur 1.2 -- -- 81
2020-02-01 01:00:00 11.9 12 Sur 33 Sur 0.8 -- -- 74
2020-02-01 00:00:00 10.9 8 Norte 27 Oeste 0.2 -- -- 78
2020-01-31 23:00:00 10.2 4 Sudeste 15 Sur 0.2 -- -- 88
2020-01-31 22:00:00 11.1 5 Sudeste 20 Sudoeste 0 -- -- 76
2020-01-31 21:00:00 11.5 8 Nordeste 23 Norte 0 -- -- 73
2020-01-31 20:00:00 10.8 8 Sur 22 Sur 0 -- -- 73
2020-01-31 19:00:00 11 7 Sur 26 Sudoeste 0 -- -- 66
2020-01-31 18:00:00 11.7 8 Norte 38 Sur 0 -- -- 63
2020-01-31 17:00:00 11.2 9 Sur 38 Sudoeste 0 -- -- 65
2020-01-31 16:00:00 12.8 9 Sur 35 Sur 0 -- -- 60
2020-01-31 15:00:00 13.8 12 Sudoeste 37 Sur 0 -- -- 57
2020-01-31 14:00:00 12.5 10 Sur 37 Sudoeste 0 -- -- 64
2020-01-31 13:00:00 14.4 12 Sur 36 Sudoeste 0 -- -- 52
2020-01-31 12:00:00 11.2 0 Calma 8 Nordeste 0 -- -- 64
2020-01-31 11:00:00 7.6 0 Calma 8 Noroeste 0 -- -- 82
2020-01-31 10:00:00 5.4 2 Norte 6 Noroeste 0 -- -- 86
2020-01-31 09:00:00 4.8 0 Calma 5 Oeste 0 -- -- 86
2020-01-31 08:00:00 4.7 0 Calma 6 Noroeste 0 -- -- 88
2020-01-31 07:00:00 4.7 3 Oeste 6 Sur 0 -- -- 90
2020-01-31 06:00:00 5 0 Calma 4 Noroeste 0 -- -- 89
2020-01-31 05:00:00 4.9 0 Calma 5 Sudoeste 0 -- -- 90
2020-01-31 04:00:00 4.8 2 Sudeste 6 Noroeste 0 -- -- 92
2020-01-31 03:00:00 5.4 0 Calma 8 Noroeste 0 -- -- 89
2020-01-31 02:00:00 6.8 3 Oeste 16 Sur 0 -- -- 84
2020-01-31 01:00:00 8.4 6 Sudoeste 22 Sudoeste 0 -- -- 79
2020-01-31 00:00:00 7.5 5 Oeste 18 Oeste 0 -- -- 88
2020-01-30 23:00:00 7.3 2 Sudoeste 8 Sudoeste 0.2 -- -- 91
2020-01-30 22:00:00 7.3 3 Sur 7 Oeste 0 -- -- 91
2020-01-30 21:00:00 8 3 Sudoeste 27 Sudoeste 0 -- -- 82
2020-01-30 20:00:00 8.5 10 Sur 31 Sudoeste 0 -- -- 80
2020-01-30 19:00:00 8.8 10 Sur 28 Sur 0 -- -- 76
2020-01-30 18:00:00 8.5 10 Sur 23 Sur 0 -- -- 80
2020-01-30 17:00:00 8.7 6 Sur 20 Este 0 -- -- 79
2020-01-30 16:00:00 8.8 8 Sur 19 Sur 0 -- -- 80
2020-01-30 15:00:00 9 8 Sudeste 21 Sur 0 -- -- 78
2020-01-30 14:00:00 8.9 9 Sur 34 Sudoeste 0.2 -- -- 77
2020-01-30 13:00:00 9.7 14 Sur 33 Sur 0 -- -- 73
2020-01-30 12:00:00 8.7 9 Sur 29 Sur 0 -- -- 80
2020-01-30 11:00:00 8.4 7 Sur 28 Sur 0 -- -- 81
2020-01-30 10:00:00 7.6 5 Sur 20 Sur 0.6 -- -- 87
2020-01-30 09:00:00 7.5 5 Sudeste 22 Sudeste 0 -- -- 86
2020-01-30 08:00:00 7.4 7 Sur 20 Sur 0 -- -- 86
2020-01-30 07:00:00 7 3 Sur 19 Sur 0.6 -- -- 93
2020-01-30 06:00:00 8.1 6 Sur 32 Sur 0.8 -- -- 87
2020-01-30 05:00:00 9 8 Sur 28 Sur 0.2 -- -- 83
2020-01-30 04:00:00 9.4 6 Noroeste 24 Sudoeste 0 -- -- 79
2020-01-30 03:00:00 9.8 6 Sur 24 Sudoeste 0 -- -- 79
2020-01-30 02:00:00 9.2 5 Sur 31 Sur 0.2 -- -- 84
2020-01-30 01:00:00 9.1 6 Sudeste 24 Sur 1.6 -- -- 89
2020-01-30 00:00:00 8.8 7 Sudeste 21 Sur 2.8 -- -- 90
2020-01-29 23:00:00 8.9 8 Sur 24 Sur 2.6 -- -- 88
2020-01-29 22:00:00 8.4 6 Sudeste 23 Sudoeste 2.4 -- -- 93
2020-01-29 21:00:00 8.5 7 Sudeste 23 Sudeste 2.4 -- -- 91
2020-01-29 20:00:00 8.6 7 Sur 23 Sudoeste 1.6 -- -- 88
2020-01-29 19:00:00 8 5 Sur 22 Sudoeste 0.4 -- -- 93
2020-01-29 18:00:00 7.5 4 Sudoeste 20 Sudeste 0.4 -- -- 96
2020-01-29 17:00:00 7.8 6 Sudoeste 20 Sur 0.2 -- -- 93
2020-01-29 16:00:00 7.5 6 Sudeste 20 Sur 2.2 -- -- 93
2020-01-29 15:00:00 7.4 7 Sudeste 32 Sur 2.6 -- -- 87
2020-01-29 14:00:00 7 5 Sudeste 38 Sudeste 4.6 -- -- 92
2020-01-29 13:00:00 7.4 4 Sudoeste 9 Este 3.8 -- -- 95
2020-01-29 12:00:00 7.9 3 Sudeste 14 Sudoeste 1.2 -- -- 85
2020-01-29 11:00:00 7.9 7 Noroeste 21 Sudoeste 0.6 -- -- 85
2020-01-29 10:00:00 5.5 2 Sur 9 Oeste 0 -- -- 100
2020-01-29 09:00:00 4.3 3 Sudoeste 6 Noroeste 0 -- -- 100
2020-01-29 08:00:00 4.4 0 Calma 5 Oeste 0 -- -- 100
2020-01-29 07:00:00 4.8 0 Calma 5 Sur 0 -- -- 100
2020-01-29 06:00:00 5.4 2 Sudeste 5 Sur 0 -- -- 100
2020-01-29 05:00:00 5.2 0 Calma 4 Oeste 0.4 -- -- 100
2020-01-29 04:00:00 5 2 Oeste 4 Oeste 0.2 -- -- 100
2020-01-29 03:00:00 4.9 0 Calma 5 Este 0.8 -- -- 100
2020-01-29 02:00:00 4.9 0 Calma 5 Este 1.4 -- -- 99
2020-01-29 01:00:00 4.6 0 Calma 5 Este 1.2 -- -- 99
2020-01-29 00:00:00 4.5 0 Calma 4 Oeste 0.6 -- -- 98
2020-01-28 23:00:00 4.5 0 Calma 4 Noroeste 0.4 -- -- 96
2020-01-28 22:00:00 4.6 3 Oeste 6 Sur 0 -- -- 90
2020-01-28 21:00:00 5 0 Calma 8 Sur 0 -- -- 84
2020-01-28 20:00:00 5.4 0 Calma 10 Sur 0 -- -- 65
2020-01-28 19:00:00 6 3 Norte 17 Sudoeste 0 -- -- 58
2020-01-28 18:00:00 8.2 9 Sur 24 Sur 0 -- -- 45
2020-01-28 17:00:00 9.3 7 Sur 24 Sudoeste 0 -- -- 39
2020-01-28 16:00:00 10.4 6 Sudeste 24 Sur 0 -- -- 39
2020-01-28 15:00:00 12.6 6 Sur 26 Sur 0 -- -- 29
2020-01-28 14:00:00 11.1 5 Sudeste 21 Sur 0 -- -- 39
2020-01-28 13:00:00 8.4 3 Norte 9 Oeste 0 -- -- 58
2020-01-28 12:00:00 6.3 2 Este 6 Sudeste 0 -- -- 83
2020-01-28 11:00:00 4.3 3 Este 6 Este 0 -- -- 92
2020-01-28 10:00:00 2.3 0 Calma 5 Oeste 0 -- -- 82
2020-01-28 09:00:00 2 0 Calma 8 Oeste 0 -- -- 76
2020-01-28 08:00:00 2.3 0 Calma 7 Oeste 0 -- -- 76
2020-01-28 07:00:00 3.3 4 Sudoeste 18 Sur 0 -- -- 75
2020-01-28 06:00:00 3.3 4 Sudoeste 8 Oeste 0 -- -- 81
2020-01-28 05:00:00 3.2 5 Oeste 10 Sudoeste 0 -- -- 88
2020-01-28 04:00:00 5 4 Oeste 22 Sur 0 -- -- 82
2020-01-28 03:00:00 6.5 8 Sur 26 Sur 0 -- -- 77
2020-01-28 02:00:00 7 7 Sur 27 Sur 0.2 -- -- 79
2020-01-28 01:00:00 6.6 9 Sur 43 Sudeste 1 -- -- 85
2020-01-28 00:00:00 7.4 10 Sudeste 37 Sudeste 0 -- -- 77
2020-01-27 23:00:00 7.5 9 Sudeste 30 Sur 0 -- -- 75
2020-01-27 22:00:00 7.3 7 Sudeste 39 Sur 0.2 -- -- 79
2020-01-27 21:00:00 8 11 Sudeste 44 Sudoeste 0 -- -- 73
2020-01-27 20:00:00 8.2 9 Sudeste 31 Este 0 -- -- 69
2020-01-27 19:00:00 7.8 11 Sudeste 29 Sur 0 -- -- 70
2020-01-27 18:00:00 7.8 11 Sudeste 35 Este 0 -- -- 70
2020-01-27 17:00:00 7.7 10 Sudeste 36 Este 0 -- -- 68
2020-01-27 16:00:00 7.9 10 Sudeste 33 Sur 0 -- -- 64
2020-01-27 15:00:00 7.6 10 Sur 33 Sudoeste 0.2 -- -- 67
2020-01-27 14:00:00 6.7 9 Sudeste 31 Sudoeste 0 -- -- 84
2020-01-27 13:00:00 6.9 10 Norte 45 Norte 0.2 -- -- 73
2020-01-27 12:00:00 6.1 7 Norte 31 Nordeste 0.6 -- -- 78
2020-01-27 11:00:00 6.8 9 Este 33 Noroeste 0 -- -- 72
2020-01-27 10:00:00 6.3 11 Norte 30 Noroeste 0.2 -- -- 76
2020-01-27 09:00:00 5.6 10 Este 24 Sudeste 0 -- -- 81
2020-01-27 08:00:00 6.1 9 Sudeste 33 Sudoeste 0 -- -- 77
2020-01-27 07:00:00 4.9 8 Sudeste 30 Sudeste 0 -- -- 86
2020-01-27 06:00:00 3.7 4 Oeste 13 Sudoeste 0.4 -- -- 95
2020-01-27 05:00:00 3.8 3 Sudoeste 24 Oeste 2.2 -- -- 93
2020-01-27 04:00:00 4.8 7 Sudeste 29 Sur 0 -- -- 81
2020-01-27 03:00:00 4.9 6 Sudeste 24 Oeste 0 -- -- 77
2020-01-27 02:00:00 5 7 Sudeste 22 Sur 0 -- -- 75
2020-01-27 01:00:00 5.1 4 Sudeste 17 Oeste 0 -- -- 76
2020-01-27 00:00:00 4.8 8 Sudeste 26 Sudeste 0 -- -- 76
2020-01-26 23:00:00 4.4 8 Sudeste 29 Sur 0 -- -- 76
2020-01-26 22:00:00 4.5 9 Sur 37 Sur 0 -- -- 72
2020-01-26 21:00:00 4.6 11 Sudoeste 36 Sudoeste 0 -- -- 67
2020-01-26 20:00:00 4.6 10 Sur 33 Sudoeste 0 -- -- 69
2020-01-26 19:00:00 4.9 13 Oeste 35 Oeste 0 -- -- 66
2020-01-26 18:00:00 5 10 Sur 40 Sudoeste 0 -- -- 67
2020-01-26 17:00:00 5.1 9 Sudoeste 37 Sur 0 -- -- 66
2020-01-26 16:00:00 5.7 15 Sur 35 Sudoeste 0 -- -- 62
2020-01-26 15:00:00 8.2 10 Sur 30 Sur 0 -- -- 52
2020-01-26 14:00:00 8.1 11 Sudoeste 27 Sudoeste 0 -- -- 50
2020-01-26 13:00:00 7.6 8 Sur 26 Sudoeste 0 -- -- 50
2020-01-26 12:00:00 6 7 Sur 22 Sur 0 -- -- 56
2020-01-26 11:00:00 3.7 6 Sudoeste 21 Sur 0 -- -- 67
2020-01-26 10:00:00 0.4 0 Calma 3 Noroeste 0 -- -- 81
2020-01-26 09:00:00 -0.6 0 Calma 4 Oeste 0 -- -- 87
2020-01-26 08:00:00 -0.3 0 Calma 3 Noroeste 0 -- -- 85
2020-01-26 07:00:00 -0.5 0 Calma 4 Sudoeste 0 -- -- 86
2020-01-26 06:00:00 -0.2 0 Calma 4 Sur 0 -- -- 86
2020-01-26 05:00:00 0.3 2 Oeste 6 Noroeste 0 -- -- 83
2020-01-26 04:00:00 -0.1 2 Oeste 5 Noroeste 0 -- -- 84
2020-01-26 03:00:00 -0.1 2 Sudoeste 5 Oeste 0 -- -- 86
2020-01-26 02:00:00 -0.2 0 Calma 4 Oeste 0 -- -- 90
2020-01-26 01:00:00 0 0 Calma 5 Oeste 0 -- -- 91
2020-01-26 00:00:00 0.1 0 Calma 5 Oeste 0 -- -- 91
2020-01-25 23:00:00 0.5 0 Calma 4 Oeste 0 -- -- 92
2020-01-25 22:00:00 0.9 0 Calma 4 Sudoeste 0 -- -- 90
2020-01-25 21:00:00 1.3 0 Calma 5 Sudoeste 0 -- -- 88
2020-01-25 20:00:00 2.2 0 Calma 4 Sudoeste 0 -- -- 85
2020-01-25 19:00:00 3.6 2 Sudoeste 4 Sudoeste 0 -- -- 78
2020-01-25 18:00:00 6.1 0 Calma 10 Sudoeste 0 -- -- 64
2020-01-25 17:00:00 7 3 Sudoeste 12 Sur 0 -- -- 61
2020-01-25 16:00:00 7.7 2 Nordeste 11 Oeste 0 -- -- 59
2020-01-25 15:00:00 8.1 3 Oeste 9 Noroeste 0 -- -- 49
2020-01-25 14:00:00 8.2 3 Norte 12 Sur 0 -- -- 50
2020-01-25 13:00:00 8 3 Nordeste 10 Este 0 -- -- 49
2020-01-25 12:00:00 5.5 3 Este 6 Sur 0 -- -- 72
2020-01-25 11:00:00 4.7 0 Calma 5 Noroeste 0 -- -- 76
2020-01-25 10:00:00 3.7 0 Calma 4 Oeste 0 -- -- 74
2020-01-25 09:00:00 2.9 0 Calma 6 Noroeste 0 -- -- 79
2020-01-25 08:00:00 2.5 0 Calma 5 Oeste 0 -- -- 84
2020-01-25 07:00:00 1.9 2 Norte 6 Oeste 0 -- -- 92
2020-01-25 06:00:00 1.9 0 Calma 5 Oeste 0 -- -- 92
2020-01-25 05:00:00 2.2 3 Oeste 5 Sudoeste 0 -- -- 91
2020-01-25 04:00:00 2 0 Calma 6 Sur 0 -- -- 89
2020-01-25 03:00:00 1.8 2 Oeste 4 Sur 0 -- -- 90
2020-01-25 02:00:00 1.2 0 Calma 5 Oeste 0 -- -- 96
2020-01-25 01:00:00 0.9 0 Calma 4 Oeste 0 -- -- 94
2020-01-25 00:00:00 1.4 2 Oeste 5 Oeste 0 -- -- 92
2020-01-24 23:00:00 2 0 Calma 4 Sudoeste 0 -- -- 90
2020-01-24 22:00:00 2.9 3 Sudoeste 5 Sudoeste 0 -- -- 87
2020-01-24 21:00:00 3.7 0 Calma 5 Oeste 0 -- -- 89
2020-01-24 20:00:00 3.7 0 Calma 5 Sudoeste 0 -- -- 88
2020-01-24 19:00:00 4.1 0 Calma 6 Oeste 0 -- -- 86
2020-01-24 18:00:00 5.1 2 Oeste 10 Sur 0 -- -- 82
2020-01-24 17:00:00 6.3 4 Sudoeste 20 Sur 0 -- -- 73
2020-01-24 16:00:00 7.8 5 Sur 18 Sur 0 -- -- 64
2020-01-24 15:00:00 8.7 6 Nordeste 19 Nordeste 0 -- -- 62
2020-01-24 14:00:00 8.4 7 Sudeste 18 Noroeste 0 -- -- 64
2020-01-24 13:00:00 6.9 3 Sur 14 Sur 0 -- -- 71
2020-01-24 12:00:00 6.4 4 Noroeste 11 Sur 0 -- -- 77
2020-01-24 11:00:00 5.3 0 Calma 6 Nordeste 0 -- -- 80
2020-01-24 10:00:00 3.8 3 Oeste 5 Noroeste 0 -- -- 85
2020-01-24 09:00:00 3.7 2 Oeste 8 Oeste 0 -- -- 83
2020-01-24 08:00:00 4.3 3 Sur 13 Oeste 0 -- -- 80
2020-01-24 07:00:00 3.3 2 Sur 7 Sur 0 -- -- 86
2020-01-24 06:00:00 3.6 2 Sudoeste 10 Este 0 -- -- 83
2020-01-24 05:00:00 4.7 3 Sudeste 23 Oeste 0 -- -- 77
2020-01-24 04:00:00 4.7 6 Sudeste 19 Sudoeste 0 -- -- 75
2020-01-24 03:00:00 5 5 Noroeste 28 Noroeste 0 -- -- 72
2020-01-24 02:00:00 4.9 3 Sudeste 21 Noroeste 0 -- -- 74
2020-01-24 01:00:00 5.1 8 Noroeste 21 Noroeste 0 -- -- 70
2020-01-24 00:00:00 5.4 12 Norte 26 Noroeste 0 -- -- 65
2020-01-23 23:00:00 5.3 4 Oeste 23 Noroeste 0 -- -- 64
2020-01-23 22:00:00 4.5 6 Norte 23 Noroeste 0 -- -- 64
2020-01-23 21:00:00 2.1 2 Oeste 9 Oeste 0 -- -- 80
2020-01-23 20:00:00 1.9 0 Calma 4 Oeste 0 -- -- 83
2020-01-23 19:00:00 2.4 2 Noroeste 6 Oeste 0 -- -- 81
2020-01-23 18:00:00 3.9 2 Sudoeste 7 Este 0 -- -- 74
2020-01-23 17:00:00 6.6 3 Sudeste 11 Este 0 -- -- 60
2020-01-23 16:00:00 7.4 4 Norte 15 Noroeste 1 -- -- 51
2020-01-23 15:00:00 8.1 3 Norte 23 Noroeste 1.6 -- -- 50
2020-01-23 14:00:00 7.6 3 Sudeste 7 Sur 1.4 -- -- 64
2020-01-23 13:00:00 6 2 Sudeste 5 Sur 1.2 -- -- 68
2020-01-23 12:00:00 3.4 2 Noroeste 4 Oeste 0.2 -- -- 80
2020-01-23 11:00:00 0.8 0 Calma 3 Oeste 0 -- -- 92
2020-01-23 10:00:00 -0.7 0 Calma 3 Noroeste 0 -- -- 95
2020-01-23 09:00:00 -1.4 0 Calma 4 Oeste 0 -- -- 97
2020-01-23 08:00:00 -1.2 0 Calma 5 Oeste 0 -- -- 98
2020-01-23 07:00:00 -1.2 0 Calma 4 Sudoeste 0 -- -- 98
2020-01-23 06:00:00 -1.2 0 Calma 6 Sudoeste 0 -- -- 97
2020-01-23 05:00:00 -0.7 0 Calma 4 Noroeste 0 -- -- 98
2020-01-23 04:00:00 -0.5 0 Calma 9 Sur 0 -- -- 99
2020-01-23 03:00:00 -0.6 3 Oeste 5 Este 0 -- -- 100
2020-01-23 02:00:00 -0.8 2 Oeste 4 Noroeste 0 -- -- 100
2020-01-23 01:00:00 -0.7 0 Calma 4 Oeste 0 -- -- 100
2020-01-23 00:00:00 -0.5 3 Sudoeste 5 Sudoeste 0 -- -- 100
2020-01-22 23:00:00 -0.2 3 Sudoeste 5 Oeste 0.2 -- -- 100
2020-01-22 22:00:00 0.7 0 Calma 4 Oeste 0 -- -- 100
2020-01-22 21:00:00 1.1 0 Calma 2 Oeste 0.4 -- -- 100
2020-01-22 20:00:00 1.2 0 Calma 2 Oeste 0.2 -- -- 100
2020-01-22 19:00:00 1.4 0 Calma 2 Oeste 0.6 -- -- 100
2020-01-22 18:00:00 1.8 0 Calma 7 Sur 0.6 -- -- 99
2020-01-22 17:00:00 2.6 3 Sudoeste 8 Sudoeste 1 -- -- 96
2020-01-22 16:00:00 3.5 0 Calma 4 Noroeste 1.4 -- -- 93
2020-01-22 15:00:00 2.9 4 Norte 5 Noroeste 0.8 -- -- 94
2020-01-22 14:00:00 3 0 Calma 3 Noroeste 1 -- -- 95
2020-01-22 13:00:00 2.4 3 Norte 5 Noroeste 0.6 -- -- 98
2020-01-22 12:00:00 1.9 0 Calma 10 Sudoeste 1 -- -- 98
2020-01-22 11:00:00 1.8 4 Sudoeste 9 Sudoeste 1.2 -- -- 99
2020-01-22 10:00:00 1.5 2 Norte 6 Noroeste 2.2 -- -- 99
2020-01-22 09:00:00 1.9 4 Noroeste 16 Sur 2.8 -- -- 97
2020-01-22 08:00:00 3.1 8 Sur 35 Sur 1.6 -- -- 91
2020-01-22 07:00:00 2.2 6 Oeste 27 Sudoeste 1.6 -- -- 98
2020-01-22 06:00:00 2.6 9 Sudoeste 31 Sur 1 -- -- 96
2020-01-22 05:00:00 2.5 5 Sur 30 Sudeste 0.8 -- -- 97
2020-01-22 04:00:00 1.6 5 Noroeste 15 Sudeste 0.6 -- -- 100
2020-01-22 03:00:00 0.6 3 Nordeste 11 Este 0 -- -- 100
2020-01-22 02:00:00 0.3 3 Oeste 12 Sudoeste 0 -- -- 100
2020-01-22 01:00:00 0.2 0 Calma 5 Oeste 0 -- -- 100
2020-01-22 00:00:00 0.2 2 Oeste 10 Sur 0 -- -- 100
2020-01-21 23:00:00 0 0 Calma 5 Oeste 0 -- -- 100
2020-01-21 22:00:00 -0.1 0 Calma 4 Noroeste 0 -- -- 99
2020-01-21 21:00:00 -0.2 3 Noroeste 5 Noroeste 0 -- -- 99
2020-01-21 20:00:00 -0.3 3 Sudoeste 6 Noroeste 0 -- -- 98
2020-01-21 19:00:00 -0.3 3 Noroeste 5 Noroeste 0 -- -- 98
2020-01-21 18:00:00 -0.3 2 Sudoeste 10 Sudoeste 0 -- -- 97
2020-01-21 17:00:00 -0.2 2 Sur 11 Sudoeste -- -- -- 96
2020-01-21 16:00:00 0 2 Sur 7 Sudoeste -- -- -- 94
2020-01-21 15:00:00 0.4 2 Sudoeste 10 Oeste -- -- -- 91
2020-01-21 14:00:00 0.9 3 Noroeste 7 Este -- -- -- 83
2020-01-21 13:00:00 1.3 4 Oeste 14 Sudoeste -- -- -- 81
2020-01-21 12:00:00 1.2 5 Oeste 23 Sudoeste -- -- -- 76
2020-01-21 11:00:00 0.8 7 Sur 18 Sur 0 -- -- 79
2020-01-21 10:00:00 -0.5 2 Sudeste 10 Sudoeste 0 -- -- 86
2020-01-21 09:00:00 -0.7 2 Norte 14 Oeste 0 -- -- 84
2020-01-21 08:00:00 -0.7 0 Calma 12 Oeste 0 -- -- 84
2020-01-21 07:00:00 -0.1 5 Sur 27 Sur 0 -- -- 76
2020-01-21 06:00:00 -0.6 4 Norte 23 Sudoeste 0 -- -- 83
2020-01-21 05:00:00 -1.2 2 Noroeste 8 Sur 0 -- -- 94
2020-01-21 04:00:00 -1 0 Calma 8 Este 0 -- -- 92
2020-01-21 03:00:00 -0.7 6 Sur 13 Sur 0 -- -- 88
2020-01-21 02:00:00 -1.3 2 Norte 9 Sudoeste 0 -- -- 92
2020-01-21 01:00:00 -1.3 5 Sur 18 Sudoeste 0 -- -- 92
2020-01-21 00:00:00 -2.1 2 Noroeste 6 Noroeste 0 -- -- 97
2020-01-20 23:00:00 -2.2 2 Noroeste 5 Este 0 -- -- 95
2020-01-20 22:00:00 -2.1 0 Calma 6 Sur 0 -- -- 91
2020-01-20 21:00:00 -2.2 4 Sudeste 10 Sudeste 0 -- -- 89
2020-01-20 20:00:00 -2.8 0 Calma 4 Noroeste 0 -- -- 90
2020-01-20 19:00:00 -2.9 0 Calma 5 Sudeste 0 -- -- 88
2020-01-20 18:00:00 -2.1 3 Oeste 6 Sudoeste -- -- -- 84
2020-01-20 17:00:00 -1.2 2 Este 8 Sur -- -- -- 80
2020-01-20 16:00:00 -1 3 Norte 12 Sudoeste -- -- -- 75
2020-01-20 15:00:00 -0.6 4 Sur 22 Este -- -- -- 76
2020-01-20 14:00:00 -0.8 9 Sur 32 Este 0 -- -- 66
2020-01-20 13:00:00 -0.4 6 Sudeste 24 Sur 0 -- -- 70
2020-01-20 12:00:00 -0.8 15 Sur 41 Sur 0 -- -- 64
2020-01-20 11:00:00 -1.3 9 Sudeste 25 Sur 0 -- -- 72
2020-01-20 10:00:00 -2.2 10 Sur 34 Sur 0 -- -- 77
2020-01-20 09:00:00 -2.7 6 Sudoeste 33 Sur 0 -- -- 93
2020-01-20 08:00:00 -2.1 10 Sur 45 Sur 0 -- -- 90
2020-01-20 07:00:00 -2.4 8 Sur 31 Sur 0 -- -- 91
2020-01-20 06:00:00 -1.9 14 Sur 37 Sur 0 -- -- 76
2020-01-20 05:00:00 -2.1 12 Sur 35 Sudoeste 0 -- -- 91
2020-01-20 04:00:00 -2.2 7 Sudoeste 21 Este 0 -- -- 97
2020-01-20 03:00:00 -2.2 6 Sur 26 Sur 0 -- -- 96
2020-01-20 02:00:00 -2.1 9 Sur 32 Sur 0 -- -- 94
2020-01-20 01:00:00 -1.7 12 Sur 26 Sudoeste 0 -- -- 89
2020-01-20 00:00:00 -1.1 12 Sur 45 Sur 0 -- -- 78
2020-01-19 23:00:00 -0.7 10 Sur 31 Sudoeste 0 -- -- 73
2020-01-19 22:00:00 -0.3 10 Sur 49 Sur 0 -- -- 77
2020-01-19 21:00:00 -0.2 14 Sur 39 Este 0.2 -- -- 67
2020-01-19 20:00:00 -0.3 16 Sur 57 Sur 0 -- -- 67
2020-01-19 19:00:00 -0.4 12 Sur 33 Sur 0 -- -- 71
2020-01-19 18:00:00 -0.3 9 Sur 35 Sudoeste 0.2 -- -- 71
2020-01-19 17:00:00 0.4 7 Sudoeste 39 Sur 0.4 -- -- 70
2020-01-19 16:00:00 1.2 5 Noroeste 28 Oeste 1 -- -- 63
2020-01-19 15:00:00 0.6 4 Sur 35 Oeste 1 -- -- 82
2020-01-19 14:00:00 1.1 5 Sudeste 19 Sudeste 1 -- -- 85
2020-01-19 13:00:00 1.1 3 Este 22 Oeste 0.8 -- -- 87
2020-01-19 12:00:00 1.1 5 Sur 24 Sudoeste 0.8 -- -- 84
2020-01-19 11:00:00 0.8 7 Oeste 22 Sur 0.4 -- -- 87
2020-01-19 10:00:00 0.5 6 Sur 27 Sur 0.4 -- -- 89
2020-01-19 09:00:00 0.9 9 Sur 24 Sudoeste 0.2 -- -- 92
2020-01-19 08:00:00 0.2 4 Oeste 10 Noroeste 0 -- -- 100
2020-01-19 07:00:00 0.2 2 Noroeste 17 Sur 0.2 -- -- 100
2020-01-19 06:00:00 0.3 2 Norte 7 Este 0 -- -- 99
2020-01-19 05:00:00 0.4 0 Calma 5 Sur 0.2 -- -- 98
2020-01-19 04:00:00 1.4 3 Oeste 7 Sudoeste 1 -- -- 99
2020-01-19 03:00:00 1.5 3 Noroeste 5 Noroeste 0 -- -- 99
2020-01-19 02:00:00 1.8 2 Oeste 5 Oeste 0.4 -- -- 99
2020-01-19 01:00:00 1.8 3 Oeste 5 Noroeste 0.4 -- -- 99
2020-01-19 00:00:00 1.9 3 Sudoeste 6 Oeste 0.4 -- -- 98
2020-01-18 23:00:00 2 0 Calma 5 Sudoeste 0.8 -- -- 97
2020-01-18 22:00:00 2.3 0 Calma 9 Oeste 0.4 -- -- 96
2020-01-18 21:00:00 2.5 2 Sudeste 8 Sudoeste 0.4 -- -- 95
2020-01-18 20:00:00 3.6 4 Oeste 33 Noroeste 0.2 -- -- 84
2020-01-18 19:00:00 3.2 6 Sudeste 24 Noroeste 0 -- -- 79
2020-01-18 18:00:00 3.5 3 Sur 18 Noroeste 0.6 -- -- 92
2020-01-18 17:00:00 3.8 6 Este 29 Noroeste 4.6 -- -- 90
2020-01-18 16:00:00 5.7 3 Sudoeste 14 Sudoeste 1.2 -- -- 91
2020-01-18 15:00:00 6.2 9 Sur 26 Noroeste 0.4 -- -- 83
2020-01-18 14:00:00 7.6 10 Sudeste 27 Sudeste 0 -- -- 69
2020-01-18 13:00:00 7.3 6 Este 28 Este 0 -- -- 69
2020-01-18 12:00:00 7.4 6 Este 29 Sudeste 0 -- -- 67
2020-01-18 11:00:00 6.9 8 Este 25 Este 0 -- -- 68
2020-01-18 10:00:00 6.1 12 Este 29 Oeste 0 -- -- 68
2020-01-18 09:00:00 5.2 13 Norte 36 Noroeste 0 -- -- 67
2020-01-18 08:00:00 5.8 14 Noroeste 40 Noroeste 0 -- -- 57
2020-01-18 07:00:00 5.9 17 Noroeste 42 Noroeste 0 -- -- 60
2020-01-18 06:00:00 6.1 14 Norte 45 Noroeste 0 -- -- 52
2020-01-18 05:00:00 6.3 8 Norte 22 Sur 0 -- -- 48
2020-01-18 04:00:00 5.4 9 Sur 26 Sur 0 -- -- 41
2020-01-18 03:00:00 3.3 5 Sur 14 Sur 0 -- -- 62
2020-01-18 02:00:00 3.5 5 Sudoeste 13 Sur 0 -- -- 68
2020-01-18 01:00:00 4.1 4 Sudeste 26 Oeste 0 -- -- 64
2020-01-18 00:00:00 2.6 3 Noroeste 22 Sudoeste 0 -- -- 71